sensor_id;sensor_type;location;lat;lon;timestamp;pressure;altitude;pressure_sealevel;temperature;humidity
54978;BME280;40873;47.522;19.106;2022-11-25T00:01:18;100334.25;;;3.56;100.00
54978;BME280;40873;47.522;19.106;2022-11-25T00:03:46;100336.09;;;3.53;100.00
54978;BME280;40873;47.522;19.106;2022-11-25T00:06:20;100339.66;;;3.50;100.00
54978;BME280;40873;47.522;19.106;2022-11-25T00:08:58;100345.66;;;3.52;100.00
54978;BME280;40873;47.522;19.106;2022-11-25T00:11:26;100357.72;;;3.56;100.00
54978;BME280;40873;47.522;19.106;2022-11-25T00:13:54;100354.28;;;3.56;100.00
54978;BME280;40873;47.522;19.106;2022-11-25T00:16:22;100363.19;;;3.49;100.00
54978;BME280;40873;47.522;19.106;2022-11-25T00:18:51;100361.44;;;3.49;100.00
54978;BME280;40873;47.522;19.106;2022-11-25T00:21:20;100352.78;;;3.47;100.00
54978;BME280;40873;47.522;19.106;2022-11-25T00:23:59;100350.16;;;3.49;100.00
54978;BME280;40873;47.522;19.106;2022-11-25T00:26:27;100357.13;;;3.48;100.00
54978;BME280;40873;47.522;19.106;2022-11-25T00:28:58;100356.59;;;3.37;100.00
54978;BME280;40873;47.522;19.106;2022-11-25T00:31:32;100359.31;;;3.34;100.00
54978;BME280;40873;47.522;19.106;2022-11-25T00:33:59;100359.38;;;3.31;100.00
54978;BME280;40873;47.522;19.106;2022-11-25T00:36:29;100361.78;;;3.37;100.00
54978;BME280;40873;47.522;19.106;2022-11-25T00:38:58;100371.38;;;3.37;100.00
54978;BME280;40873;47.522;19.106;2022-11-25T00:41:26;100378.47;;;3.32;100.00
54978;BME280;40873;47.522;19.106;2022-11-25T00:44:14;100384.53;;;3.32;100.00
54978;BME280;40873;47.522;19.106;2022-11-25T00:49:31;100381.88;;;3.34;100.00
54978;BME280;40873;47.522;19.106;2022-11-25T00:52:00;100386.25;;;3.33;100.00
54978;BME280;40873;47.522;19.106;2022-11-25T00:54:27;100384.72;;;3.26;100.00
54978;BME280;40873;47.522;19.106;2022-11-25T00:56:55;100383.94;;;3.24;100.00
54978;BME280;40873;47.522;19.106;2022-11-25T00:59:22;100385.63;;;3.25;100.00
54978;BME280;40873;47.522;19.106;2022-11-25T01:01:49;100389.25;;;3.21;100.00
54978;BME280;40873;47.522;19.106;2022-11-25T01:04:16;100388.34;;;3.22;100.00
54978;BME280;40873;47.522;19.106;2022-11-25T01:06:43;100391.91;;;3.18;100.00
54978;BME280;40873;47.522;19.106;2022-11-25T01:09:11;100396.28;;;3.17;100.00
54978;BME280;40873;47.522;19.106;2022-11-25T01:11:39;100396.09;;;3.23;100.00
54978;BME280;40873;47.522;19.106;2022-11-25T01:14:07;100385.81;;;3.19;100.00
54978;BME280;40873;47.522;19.106;2022-11-25T01:16:34;100385.91;;;3.16;100.00
54978;BME280;40873;47.522;19.106;2022-11-25T01:19:02;100394.69;;;3.13;100.00
54978;BME280;40873;47.522;19.106;2022-11-25T01:21:31;100393.22;;;3.03;100.00
54978;BME280;40873;47.522;19.106;2022-11-25T01:24:00;100394.00;;;3.07;100.00
54978;BME280;40873;47.522;19.106;2022-11-25T01:26:28;100401.81;;;3.07;100.00
54978;BME280;40873;47.522;19.106;2022-11-25T01:28:57;100402.81;;;3.02;100.00
54978;BME280;40873;47.522;19.106;2022-11-25T01:31:27;100394.84;;;3.07;100.00
54978;BME280;40873;47.522;19.106;2022-11-25T01:33:57;100401.63;;;3.13;100.00
54978;BME280;40873;47.522;19.106;2022-11-25T01:36:25;100405.34;;;3.04;100.00
54978;BME280;40873;47.522;19.106;2022-11-25T01:38:54;100411.56;;;3.00;100.00
54978;BME280;40873;47.522;19.106;2022-11-25T01:41:23;100420.19;;;3.02;100.00
54978;BME280;40873;47.522;19.106;2022-11-25T01:46:44;100416.13;;;2.92;100.00
54978;BME280;40873;47.522;19.106;2022-11-25T01:54:49;100411.09;;;2.86;100.00
54978;BME280;40873;47.522;19.106;2022-11-25T01:57:26;100416.31;;;2.86;100.00
54978;BME280;40873;47.522;19.106;2022-11-25T01:59:56;100405.91;;;2.86;100.00
54978;BME280;40873;47.522;19.106;2022-11-25T02:02:26;100404.25;;;2.82;100.00
54978;BME280;40873;47.522;19.106;2022-11-25T02:04:55;100403.41;;;2.81;100.00
54978;BME280;40873;47.522;19.106;2022-11-25T02:07:36;100415.25;;;2.93;100.00
54978;BME280;40873;47.522;19.106;2022-11-25T02:10:06;100413.56;;;2.90;100.00
54978;BME280;40873;47.522;19.106;2022-11-25T02:12:36;100415.38;;;2.88;100.00
54978;BME280;40873;47.522;19.106;2022-11-25T02:15:04;100419.94;;;2.80;100.00
54978;BME280;40873;47.522;19.106;2022-11-25T02:17:32;100422.50;;;2.82;100.00
54978;BME280;40873;47.522;19.106;2022-11-25T02:20:13;100424.09;;;2.87;100.00
54978;BME280;40873;47.522;19.106;2022-11-25T02:25:35;100417.75;;;2.96;100.00
54978;BME280;40873;47.522;19.106;2022-11-25T02:28:21;100416.13;;;2.92;100.00
54978;BME280;40873;47.522;19.106;2022-11-25T02:30:49;100413.34;;;2.98;100.00
54978;BME280;40873;47.522;19.106;2022-11-25T02:33:18;100415.88;;;3.01;100.00
54978;BME280;40873;47.522;19.106;2022-11-25T02:36:05;100424.56;;;3.01;100.00
54978;BME280;40873;47.522;19.106;2022-11-25T02:38:41;100426.44;;;2.96;100.00
54978;BME280;40873;47.522;19.106;2022-11-25T02:41:15;100427.09;;;3.03;100.00
54978;BME280;40873;47.522;19.106;2022-11-25T02:43:44;100432.53;;;2.95;100.00
54978;BME280;40873;47.522;19.106;2022-11-25T02:46:16;100430.78;;;2.96;100.00
54978;BME280;40873;47.522;19.106;2022-11-25T02:48:49;100429.13;;;2.93;100.00
54978;BME280;40873;47.522;19.106;2022-11-25T02:51:39;100424.63;;;2.98;100.00
54978;BME280;40873;47.522;19.106;2022-11-25T02:54:06;100423.75;;;2.98;100.00
54978;BME280;40873;47.522;19.106;2022-11-25T02:56:34;100413.19;;;3.04;100.00
54978;BME280;40873;47.522;19.106;2022-11-25T02:59:02;100418.56;;;2.98;100.00
54978;BME280;40873;47.522;19.106;2022-11-25T03:01:29;100424.34;;;3.09;100.00
54978;BME280;40873;47.522;19.106;2022-11-25T03:03:58;100432.16;;;3.09;100.00
54978;BME280;40873;47.522;19.106;2022-11-25T03:06:25;100434.88;;;3.05;100.00
54978;BME280;40873;47.522;19.106;2022-11-25T03:08:52;100442.78;;;3.01;100.00
54978;BME280;40873;47.522;19.106;2022-11-25T03:11:19;100449.84;;;2.98;100.00
54978;BME280;40873;47.522;19.106;2022-11-25T03:13:46;100445.47;;;2.98;100.00
54978;BME280;40873;47.522;19.106;2022-11-25T03:16:13;100449.81;;;2.99;100.00
54978;BME280;40873;47.522;19.106;2022-11-25T03:18:40;100449.06;;;2.94;100.00
54978;BME280;40873;47.522;19.106;2022-11-25T03:21:07;100450.50;;;3.05;100.00
54978;BME280;40873;47.522;19.106;2022-11-25T03:23:34;100467.16;;;3.00;100.00
54978;BME280;40873;47.522;19.106;2022-11-25T03:26:04;100464.56;;;2.99;100.00
54978;BME280;40873;47.522;19.106;2022-11-25T03:28:32;100468.13;;;2.96;100.00
54978;BME280;40873;47.522;19.106;2022-11-25T03:30:59;100476.03;;;2.93;100.00
54978;BME280;40873;47.522;19.106;2022-11-25T03:33:26;100467.47;;;2.88;100.00
54978;BME280;40873;47.522;19.106;2022-11-25T03:35:52;100471.16;;;2.81;100.00
54978;BME280;40873;47.522;19.106;2022-11-25T03:38:19;100474.66;;;2.80;100.00
54978;BME280;40873;47.522;19.106;2022-11-25T03:40:46;100473.66;;;2.84;100.00
54978;BME280;40873;47.522;19.106;2022-11-25T03:43:13;100467.47;;;2.88;100.00
54978;BME280;40873;47.522;19.106;2022-11-25T03:45:40;100470.00;;;2.91;100.00
54978;BME280;40873;47.522;19.106;2022-11-25T03:48:07;100484.91;;;2.86;100.00
54978;BME280;40873;47.522;19.106;2022-11-25T03:50:34;100479.91;;;2.79;100.00
54978;BME280;40873;47.522;19.106;2022-11-25T03:53:01;100474.72;;;2.77;100.00
54978;BME280;40873;47.522;19.106;2022-11-25T03:55:28;100477.56;;;2.68;100.00
54978;BME280;40873;47.522;19.106;2022-11-25T03:57:55;100480.19;;;2.68;100.00
54978;BME280;40873;47.522;19.106;2022-11-25T04:00:22;100480.19;;;2.68;100.00
54978;BME280;40873;47.522;19.106;2022-11-25T04:02:49;100491.34;;;2.73;100.00
54978;BME280;40873;47.522;19.106;2022-11-25T04:05:16;100491.19;;;2.78;100.00
54978;BME280;40873;47.522;19.106;2022-11-25T04:07:43;100493.09;;;2.71;100.00
54978;BME280;40873;47.522;19.106;2022-11-25T04:10:10;100505.38;;;2.67;100.00
54978;BME280;40873;47.522;19.106;2022-11-25T04:12:38;100496.59;;;2.71;100.00
54978;BME280;40873;47.522;19.106;2022-11-25T04:15:15;100499.31;;;2.67;100.00
54978;BME280;40873;47.522;19.106;2022-11-25T04:17:42;100508.06;;;2.64;100.00
54978;BME280;40873;47.522;19.106;2022-11-25T04:20:10;100507.19;;;2.64;100.00
54978;BME280;40873;47.522;19.106;2022-11-25T04:22:38;100504.47;;;2.68;100.00
54978;BME280;40873;47.522;19.106;2022-11-25T04:25:05;100504.56;;;2.64;100.00
54978;BME280;40873;47.522;19.106;2022-11-25T04:27:32;100514.13;;;2.65;100.00
54978;BME280;40873;47.522;19.106;2022-11-25T04:29:59;100507.47;;;2.53;100.00
54978;BME280;40873;47.522;19.106;2022-11-25T04:32:26;100511.81;;;2.53;100.00
54978;BME280;40873;47.522;19.106;2022-11-25T04:34:53;100522.19;;;2.54;100.00
54978;BME280;40873;47.522;19.106;2022-11-25T04:37:20;100517.09;;;2.50;100.00
54978;BME280;40873;47.522;19.106;2022-11-25T04:39:47;100518.03;;;2.47;100.00
54978;BME280;40873;47.522;19.106;2022-11-25T04:42:14;100521.38;;;2.52;100.00
54978;BME280;40873;47.522;19.106;2022-11-25T04:45:02;100527.41;;;2.54;100.00
54978;BME280;40873;47.522;19.106;2022-11-25T04:47:49;100527.59;;;2.46;100.00
54978;BME280;40873;47.522;19.106;2022-11-25T04:50:19;100526.69;;;2.47;100.00
54978;BME280;40873;47.522;19.106;2022-11-25T04:52:46;100529.44;;;2.41;100.00
54978;BME280;40873;47.522;19.106;2022-11-25T04:55:13;100532.91;;;2.43;100.00
54978;BME280;40873;47.522;19.106;2022-11-25T04:57:40;100534.63;;;2.43;100.00
54978;BME280;40873;47.522;19.106;2022-11-25T05:00:08;100532.75;;;2.48;100.00
54978;BME280;40873;47.522;19.106;2022-11-25T05:02:36;100542.28;;;2.51;100.00
54978;BME280;40873;47.522;19.106;2022-11-25T05:05:03;100544.88;;;2.49;100.00
54978;BME280;40873;47.522;19.106;2022-11-25T05:07:31;100552.81;;;2.44;100.00
54978;BME280;40873;47.522;19.106;2022-11-25T05:09:57;100552.13;;;2.38;100.00
54978;BME280;40873;47.522;19.106;2022-11-25T05:12:27;100565.38;;;2.27;100.00
54978;BME280;40873;47.522;19.106;2022-11-25T05:14:55;100575.03;;;2.22;100.00
54978;BME280;40873;47.522;19.106;2022-11-25T05:17:25;100576.78;;;2.22;100.00
54978;BME280;40873;47.522;19.106;2022-11-25T05:19:52;100574.22;;;2.20;100.00
54978;BME280;40873;47.522;19.106;2022-11-25T05:22:22;100578.66;;;2.15;100.00
54978;BME280;40873;47.522;19.106;2022-11-25T05:24:49;100584.94;;;2.06;100.00
54978;BME280;40873;47.522;19.106;2022-11-25T05:27:17;100595.50;;;1.99;100.00
54978;BME280;40873;47.522;19.106;2022-11-25T05:29:44;100594.44;;;2.09;100.00
54978;BME280;40873;47.522;19.106;2022-11-25T05:32:11;100589.91;;;2.17;100.00
54978;BME280;40873;47.522;19.106;2022-11-25T05:34:39;100599.63;;;2.09;100.00
54978;BME280;40873;47.522;19.106;2022-11-25T05:37:08;100606.75;;;1.99;100.00
54978;BME280;40873;47.522;19.106;2022-11-25T05:39:35;100606.16;;;1.88;100.00
54978;BME280;40873;47.522;19.106;2022-11-25T05:42:02;100607.06;;;1.85;100.00
54978;BME280;40873;47.522;19.106;2022-11-25T05:44:29;100609.97;;;1.70;100.00
54978;BME280;40873;47.522;19.106;2022-11-25T05:46:56;100616.06;;;1.69;100.00
54978;BME280;40873;47.522;19.106;2022-11-25T05:49:23;100614.31;;;1.70;100.00
54978;BME280;40873;47.522;19.106;2022-11-25T05:51:50;100615.50;;;1.52;100.00
54978;BME280;40873;47.522;19.106;2022-11-25T05:54:16;100623.56;;;1.40;100.00
54978;BME280;40873;47.522;19.106;2022-11-25T05:56:44;100633.81;;;1.47;100.00
54978;BME280;40873;47.522;19.106;2022-11-25T05:59:10;100629.41;;;1.51;100.00
54978;BME280;40873;47.522;19.106;2022-11-25T06:01:38;100633.81;;;1.46;100.00
54978;BME280;40873;47.522;19.106;2022-11-25T06:04:04;100643.56;;;1.34;100.00
54978;BME280;40873;47.522;19.106;2022-11-25T06:06:32;100641.09;;;1.28;100.00
54978;BME280;40873;47.522;19.106;2022-11-25T06:08:59;100650.53;;;1.34;100.00
54978;BME280;40873;47.522;19.106;2022-11-25T06:11:26;100646.34;;;1.25;100.00
54978;BME280;40873;47.522;19.106;2022-11-25T06:13:55;100653.31;;;1.22;100.00
54978;BME280;40873;47.522;19.106;2022-11-25T06:16:22;100660.00;;;1.36;100.00
54978;BME280;40873;47.522;19.106;2022-11-25T06:18:50;100653.88;;;1.39;100.00
54978;BME280;40873;47.522;19.106;2022-11-25T06:21:17;100667.69;;;1.43;100.00
54978;BME280;40873;47.522;19.106;2022-11-25T06:23:44;100675.63;;;1.35;100.00
54978;BME280;40873;47.522;19.106;2022-11-25T06:28:40;100674.75;;;1.36;100.00
54978;BME280;40873;47.522;19.106;2022-11-25T06:31:16;100678.91;;;1.46;100.00
54978;BME280;40873;47.522;19.106;2022-11-25T06:33:48;100678.84;;;1.49;100.00
54978;BME280;40873;47.522;19.106;2022-11-25T06:36:16;100682.28;;;1.50;100.00
54978;BME280;40873;47.522;19.106;2022-11-25T06:38:44;100680.69;;;1.43;100.00
54978;BME280;40873;47.522;19.106;2022-11-25T06:41:12;100682.47;;;1.41;100.00
54978;BME280;40873;47.522;19.106;2022-11-25T06:43:39;100682.66;;;1.28;100.00
54978;BME280;40873;47.522;19.106;2022-11-25T06:46:16;100685.34;;;1.25;100.00
54978;BME280;40873;47.522;19.106;2022-11-25T06:48:51;100674.78;;;1.34;100.00
54978;BME280;40873;47.522;19.106;2022-11-25T06:51:19;100683.34;;;1.40;100.00
54978;BME280;40873;47.522;19.106;2022-11-25T06:53:45;100683.22;;;1.47;100.00
54978;BME280;40873;47.522;19.106;2022-11-25T06:56:19;100694.41;;;1.51;100.00
54978;BME280;40873;47.522;19.106;2022-11-25T06:58:47;100695.88;;;1.65;100.00
54978;BME280;40873;47.522;19.106;2022-11-25T07:01:40;100697.72;;;1.59;100.00
54978;BME280;40873;47.522;19.106;2022-11-25T07:04:07;100698.72;;;1.53;100.00
54978;BME280;40873;47.522;19.106;2022-11-25T07:06:34;100713.44;;;1.54;100.00
54978;BME280;40873;47.522;19.106;2022-11-25T07:09:02;100708.13;;;1.60;100.00
54978;BME280;40873;47.522;19.106;2022-11-25T07:11:34;100713.19;;;1.68;100.00
54978;BME280;40873;47.522;19.106;2022-11-25T07:14:08;100719.13;;;1.73;100.00
54978;BME280;40873;47.522;19.106;2022-11-25T07:16:38;100719.03;;;1.79;100.00
54978;BME280;40873;47.522;19.106;2022-11-25T07:19:05;100724.25;;;1.78;100.00
54978;BME280;40873;47.522;19.106;2022-11-25T07:21:33;100725.69;;;1.96;100.00
54978;BME280;40873;47.522;19.106;2022-11-25T07:24:04;100722.25;;;1.92;100.00
54978;BME280;40873;47.522;19.106;2022-11-25T07:26:36;100722.13;;;2.00;100.00
54978;BME280;40873;47.522;19.106;2022-11-25T07:29:06;100723.75;;;2.05;100.00
54978;BME280;40873;47.522;19.106;2022-11-25T07:31:53;100719.34;;;2.07;100.00
54978;BME280;40873;47.522;19.106;2022-11-25T07:34:20;100724.41;;;2.16;100.00
54978;BME280;40873;47.522;19.106;2022-11-25T07:36:49;100730.28;;;2.26;100.00
54978;BME280;40873;47.522;19.106;2022-11-25T07:39:19;100723.19;;;2.33;100.00
54978;BME280;40873;47.522;19.106;2022-11-25T07:41:51;100730.81;;;2.42;100.00
54978;BME280;40873;47.522;19.106;2022-11-25T07:44:19;100724.41;;;2.58;100.00
54978;BME280;40873;47.522;19.106;2022-11-25T07:46:48;100730.38;;;2.62;100.00
54978;BME280;40873;47.522;19.106;2022-11-25T07:49:20;100724.78;;;2.80;100.00
54978;BME280;40873;47.522;19.106;2022-11-25T07:51:55;100721.75;;;2.98;100.00
54978;BME280;40873;47.522;19.106;2022-11-25T07:54:23;100720.88;;;3.35;100.00
54978;BME280;40873;47.522;19.106;2022-11-25T07:56:50;100722.19;;;3.51;100.00
54978;BME280;40873;47.522;19.106;2022-11-25T07:59:19;100727.84;;;3.69;100.00
54978;BME280;40873;47.522;19.106;2022-11-25T08:01:53;100729.38;;;3.77;100.00
54978;BME280;40873;47.522;19.106;2022-11-25T08:04:21;100727.25;;;3.92;100.00
54978;BME280;40873;47.522;19.106;2022-11-25T08:06:50;100732.25;;;3.99;100.00
54978;BME280;40873;47.522;19.106;2022-11-25T08:09:20;100731.13;;;4.08;100.00
54978;BME280;40873;47.522;19.106;2022-11-25T08:11:48;100729.25;;;4.13;100.00
54978;BME280;40873;47.522;19.106;2022-11-25T08:14:15;100742.19;;;4.18;100.00
54978;BME280;40873;47.522;19.106;2022-11-25T08:16:43;100738.47;;;4.26;100.00
54978;BME280;40873;47.522;19.106;2022-11-25T08:19:12;100742.56;;;4.35;100.00
54978;BME280;40873;47.522;19.106;2022-11-25T08:21:40;100742.34;;;4.43;100.00
54978;BME280;40873;47.522;19.106;2022-11-25T08:24:13;100740.41;;;4.49;100.00
54978;BME280;40873;47.522;19.106;2022-11-25T08:26:41;100747.16;;;4.56;100.00
54978;BME280;40873;47.522;19.106;2022-11-25T08:29:12;100746.94;;;4.64;100.00
54978;BME280;40873;47.522;19.106;2022-11-25T08:31:40;100739.66;;;4.75;100.00
54978;BME280;40873;47.522;19.106;2022-11-25T08:34:08;100740.13;;;4.88;100.00
54978;BME280;40873;47.522;19.106;2022-11-25T08:36:42;100742.41;;;4.99;100.00
54978;BME280;40873;47.522;19.106;2022-11-25T08:39:14;100741.66;;;4.95;100.00
54978;BME280;40873;47.522;19.106;2022-11-25T08:42:02;100743.84;;;5.09;100.00
54978;BME280;40873;47.522;19.106;2022-11-25T08:44:30;100744.53;;;5.14;100.00
54978;BME280;40873;47.522;19.106;2022-11-25T08:46:57;100752.84;;;5.27;100.00
54978;BME280;40873;47.522;19.106;2022-11-25T08:49:24;100746.19;;;5.44;100.00
54978;BME280;40873;47.522;19.106;2022-11-25T08:51:52;100748.53;;;5.52;100.00
54978;BME280;40873;47.522;19.106;2022-11-25T08:54:19;100744.56;;;5.67;100.00
54978;BME280;40873;47.522;19.106;2022-11-25T08:56:46;100742.44;;;5.78;100.00
54978;BME280;40873;47.522;19.106;2022-11-25T08:59:13;100744.34;;;5.99;100.00
54978;BME280;40873;47.522;19.106;2022-11-25T09:01:40;100742.66;;;6.22;100.00
54978;BME280;40873;47.522;19.106;2022-11-25T09:04:07;100740.88;;;6.47;100.00
54978;BME280;40873;47.522;19.106;2022-11-25T09:06:34;100741.22;;;6.83;100.00
54978;BME280;40873;47.522;19.106;2022-11-25T09:09:01;100733.38;;;7.05;99.59
54978;BME280;40873;47.522;19.106;2022-11-25T09:11:28;100747.16;;;7.32;98.22
54978;BME280;40873;47.522;19.106;2022-11-25T09:13:55;100745.09;;;7.61;97.85
54978;BME280;40873;47.522;19.106;2022-11-25T09:16:24;100749.97;;;7.90;97.03
54978;BME280;40873;47.522;19.106;2022-11-25T09:18:52;100738.22;;;7.99;95.42
54978;BME280;40873;47.522;19.106;2022-11-25T09:21:25;100741.66;;;8.20;91.72
54978;BME280;40873;47.522;19.106;2022-11-25T09:23:52;100746.47;;;8.51;92.80
54978;BME280;40873;47.522;19.106;2022-11-25T09:26:24;100748.19;;;8.71;91.93
54978;BME280;40873;47.522;19.106;2022-11-25T09:28:52;100743.81;;;8.89;91.28
54978;BME280;40873;47.522;19.106;2022-11-25T09:31:20;100732.91;;;9.15;88.58
54978;BME280;40873;47.522;19.106;2022-11-25T09:33:47;100735.25;;;9.39;87.76
54978;BME280;40873;47.522;19.106;2022-11-25T09:36:16;100742.81;;;9.64;85.15
54978;BME280;40873;47.522;19.106;2022-11-25T09:38:43;100735.06;;;9.95;83.04
54978;BME280;40873;47.522;19.106;2022-11-25T09:41:23;100736.19;;;10.07;83.34
54978;BME280;40873;47.522;19.106;2022-11-25T09:50:06;100735.22;;;10.42;80.90
54978;BME280;40873;47.522;19.106;2022-11-25T09:55:23;100721.47;;;10.69;78.43
54978;BME280;40873;47.522;19.106;2022-11-25T09:58:15;100721.13;;;10.91;80.09
54978;BME280;40873;47.522;19.106;2022-11-25T10:00:46;100719.44;;;10.90;78.09
54978;BME280;40873;47.522;19.106;2022-11-25T10:03:27;100719.78;;;11.00;77.41
54978;BME280;40873;47.522;19.106;2022-11-25T10:08:37;100722.31;;;11.17;75.08
54978;BME280;40873;47.522;19.106;2022-11-25T10:11:21;100714.78;;;11.41;74.65
54978;BME280;40873;47.522;19.106;2022-11-25T10:16:50;100717.13;;;11.45;73.02
54978;BME280;40873;47.522;19.106;2022-11-25T10:21:55;100719.97;;;11.72;71.52
54978;BME280;40873;47.522;19.106;2022-11-25T10:24:24;100722.09;;;11.82;72.43
54978;BME280;40873;47.522;19.106;2022-11-25T10:26:57;100722.09;;;11.96;71.17
54978;BME280;40873;47.522;19.106;2022-11-25T10:29:28;100728.72;;;12.03;70.21
54978;BME280;40873;47.522;19.106;2022-11-25T10:32:04;100720.16;;;11.69;70.40
54978;BME280;40873;47.522;19.106;2022-11-25T10:34:42;100713.53;;;12.06;70.99
54978;BME280;40873;47.522;19.106;2022-11-25T10:37:15;100712.59;;;12.22;69.77
54978;BME280;40873;47.522;19.106;2022-11-25T10:39:45;100712.31;;;11.38;70.84
54978;BME280;40873;47.522;19.106;2022-11-25T10:42:24;100713.66;;;10.99;74.18
54978;BME280;40873;47.522;19.106;2022-11-25T10:44:52;100711.22;;;11.26;73.44
54978;BME280;40873;47.522;19.106;2022-11-25T10:50:16;100723.81;;;11.67;71.91
54978;BME280;40873;47.522;19.106;2022-11-25T10:55:21;100723.28;;;12.06;71.42
54978;BME280;40873;47.522;19.106;2022-11-25T10:57:49;100730.53;;;12.02;70.40
54978;BME280;40873;47.522;19.106;2022-11-25T11:02:55;100722.50;;;11.74;70.17
54978;BME280;40873;47.522;19.106;2022-11-25T11:05:28;100726.31;;;10.77;74.70
54978;BME280;40873;47.522;19.106;2022-11-25T11:08:15;100728.06;;;10.11;77.23
54978;BME280;40873;47.522;19.106;2022-11-25T11:10:43;100726.63;;;10.39;76.14
54978;BME280;40873;47.522;19.106;2022-11-25T11:13:19;100731.16;;;10.53;76.73
54978;BME280;40873;47.522;19.106;2022-11-25T11:15:47;100733.28;;;10.62;76.82
54978;BME280;40873;47.522;19.106;2022-11-25T11:18:24;100732.06;;;10.85;75.53
54978;BME280;40873;47.522;19.106;2022-11-25T11:20:55;100738.84;;;11.20;73.34
54978;BME280;40873;47.522;19.106;2022-11-25T11:23:24;100737.56;;;10.80;74.85
54978;BME280;40873;47.522;19.106;2022-11-25T11:26:05;100735.34;;;10.06;77.88
54978;BME280;40873;47.522;19.106;2022-11-25T11:31:17;100735.81;;;10.48;77.13
54978;BME280;40873;47.522;19.106;2022-11-25T11:43:01;100740.50;;;9.21;81.85
54978;BME280;40873;47.522;19.106;2022-11-25T11:48:06;100733.44;;;9.58;81.24
54978;BME280;40873;47.522;19.106;2022-11-25T11:56:41;100738.31;;;9.66;82.44
54978;BME280;40873;47.522;19.106;2022-11-25T12:05:12;100726.41;;;9.76;81.04
54978;BME280;40873;47.522;19.106;2022-11-25T12:13:44;100726.28;;;9.43;84.33
54978;BME280;40873;47.522;19.106;2022-11-25T12:16:00;100731.59;;;9.60;83.89
54978;BME280;40873;47.522;19.106;2022-11-25T12:21:21;100735.97;;;9.25;84.96
54978;BME280;40873;47.522;19.106;2022-11-25T12:29:35;100730.31;;;9.32;86.61
54978;BME280;40873;47.522;19.106;2022-11-25T12:46:00;100728.31;;;9.72;84.81
54978;BME280;40873;47.522;19.106;2022-11-25T12:48:31;100721.13;;;9.76;83.87
54978;BME280;40873;47.522;19.106;2022-11-25T12:51:39;100715.00;;;9.58;86.07
54978;BME280;40873;47.522;19.106;2022-11-25T13:08:53;100714.59;;;9.48;88.58
54978;BME280;40873;47.522;19.106;2022-11-25T13:14:27;100713.00;;;9.46;88.36
54978;BME280;40873;47.522;19.106;2022-11-25T13:17:12;100720.19;;;9.59;87.43
54978;BME280;40873;47.522;19.106;2022-11-25T13:19:41;100713.28;;;9.57;86.29
54978;BME280;40873;47.522;19.106;2022-11-25T13:24:46;100715.00;;;9.41;87.39
54978;BME280;40873;47.522;19.106;2022-11-25T13:38:36;100721.03;;;9.25;90.07
54978;BME280;40873;47.522;19.106;2022-11-25T13:41:21;100726.72;;;9.16;91.28
54978;BME280;40873;47.522;19.106;2022-11-25T13:44:03;100727.94;;;9.09;92.70
54978;BME280;40873;47.522;19.106;2022-11-25T13:46:39;100728.19;;;9.04;92.60
54978;BME280;40873;47.522;19.106;2022-11-25T13:49:27;100737.78;;;9.05;92.82
54978;BME280;40873;47.522;19.106;2022-11-25T13:54:50;100744.31;;;8.97;92.73
54978;BME280;40873;47.522;19.106;2022-11-25T13:57:26;100745.03;;;8.82;93.60
54978;BME280;40873;47.522;19.106;2022-11-25T14:00:05;100745.13;;;8.80;93.35
54978;BME280;40873;47.522;19.106;2022-11-25T14:02:36;100750.72;;;8.72;94.33
54978;BME280;40873;47.522;19.106;2022-11-25T14:12:54;100763.78;;;8.55;96.21
54978;BME280;40873;47.522;19.106;2022-11-25T14:18:22;100766.72;;;8.49;99.41
54978;BME280;40873;47.522;19.106;2022-11-25T14:27:04;100769.75;;;8.40;99.11
54978;BME280;40873;47.522;19.106;2022-11-25T14:30:08;100761.50;;;8.27;100.00
54978;BME280;40873;47.522;19.106;2022-11-25T14:32:42;100771.31;;;8.23;100.00
54978;BME280;40873;47.522;19.106;2022-11-25T14:35:14;100771.59;;;8.17;100.00
54978;BME280;40873;47.522;19.106;2022-11-25T14:40:20;100768.50;;;8.08;100.00
54978;BME280;40873;47.522;19.106;2022-11-25T14:42:52;100775.47;;;8.09;100.00
54978;BME280;40873;47.522;19.106;2022-11-25T14:45:27;100767.06;;;8.01;100.00
54978;BME280;40873;47.522;19.106;2022-11-25T14:47:55;100766.00;;;8.05;100.00
54978;BME280;40873;47.522;19.106;2022-11-25T14:50:23;100769.63;;;8.02;100.00
54978;BME280;40873;47.522;19.106;2022-11-25T14:53:10;100778.34;;;8.03;100.00
54978;BME280;40873;47.522;19.106;2022-11-25T14:55:36;100783.53;;;8.04;100.00
54978;BME280;40873;47.522;19.106;2022-11-25T14:58:04;100782.69;;;8.04;100.00
54978;BME280;40873;47.522;19.106;2022-11-25T15:00:31;100782.56;;;8.07;100.00
54978;BME280;40873;47.522;19.106;2022-11-25T15:03:03;100778.34;;;8.03;100.00
54978;BME280;40873;47.522;19.106;2022-11-25T15:10:37;100785.16;;;8.27;100.00
54978;BME280;40873;47.522;19.106;2022-11-25T15:13:11;100786.34;;;8.20;100.00
54978;BME280;40873;47.522;19.106;2022-11-25T15:15:38;100782.28;;;8.13;100.00
54978;BME280;40873;47.522;19.106;2022-11-25T15:18:08;100790.50;;;8.05;100.00
54978;BME280;40873;47.522;19.106;2022-11-25T15:20:39;100784.72;;;7.97;100.00
54978;BME280;40873;47.522;19.106;2022-11-25T15:23:10;100786.31;;;7.81;100.00
54978;BME280;40873;47.522;19.106;2022-11-25T15:25:53;100794.97;;;8.03;100.00
54978;BME280;40873;47.522;19.106;2022-11-25T15:28:20;100796.22;;;7.94;100.00
54978;BME280;40873;47.522;19.106;2022-11-25T15:31:00;100797.06;;;7.75;100.00
54978;BME280;40873;47.522;19.106;2022-11-25T15:33:28;100799.09;;;7.68;100.00